createdAt,value
2018-03-07T00:01:45.724Z,98790.25
2018-03-07T00:06:47.166Z,98797.63
2018-03-07T00:11:48.511Z,98798.06
2018-03-07T00:16:49.828Z,98790.77
2018-03-07T00:21:51.160Z,98788.42
2018-03-07T00:26:52.497Z,98796.31
2018-03-07T00:31:53.856Z,98793.02
2018-03-07T00:36:55.206Z,98792.14
2018-03-07T00:41:56.540Z,98784.97
2018-03-07T00:46:58.610Z,98781.81
2018-03-07T00:51:59.976Z,98782.32
2018-03-07T00:57:01.338Z,98787.38
2018-03-07T01:02:03.409Z,98778.62
2018-03-07T01:07:04.750Z,98786.86
2018-03-07T01:12:06.099Z,98778.77
2018-03-07T01:17:07.444Z,98775.09
2018-03-07T01:22:08.883Z,98771.95
2018-03-07T01:27:10.228Z,98773.92
2018-03-07T01:32:11.611Z,98745.89
2018-03-07T01:37:12.993Z,98762.98
2018-03-07T01:42:14.365Z,98772.23
2018-03-07T01:47:16.438Z,98775.17
2018-03-07T01:52:17.791Z,98764.77
2018-03-07T01:57:19.122Z,98762.27
2018-03-07T02:02:20.451Z,98767.64
2018-03-07T02:07:22.544Z,98773.87
2018-03-07T02:12:24.633Z,98773.17
2018-03-07T02:17:25.954Z,98779.69
2018-03-07T02:22:28.081Z,98782.13
2018-03-07T02:27:29.433Z,98789.84
2018-03-07T02:32:30.857Z,98788.78
2018-03-07T02:37:32.175Z,98785.68
2018-03-07T02:42:33.513Z,98781.44
2018-03-07T02:47:34.907Z,98782.07
2018-03-07T02:52:36.993Z,98792.77
2018-03-07T02:57:38.426Z,98792.48
2018-03-07T03:02:39.802Z,98789.05
2018-03-07T03:07:41.957Z,98784.81
2018-03-07T03:12:43.293Z,98787.99
2018-03-07T03:17:45.379Z,98796.83
2018-03-07T03:22:46.711Z,98801.56
2018-03-07T03:27:48.055Z,98798.79
2018-03-07T03:32:49.467Z,98788.16
2018-03-07T03:37:51.528Z,98810.02
2018-03-07T03:42:52.840Z,98811.54
2018-03-07T03:47:54.202Z,98803.48
2018-03-07T03:52:55.559Z,98810.98
2018-03-07T03:57:57.636Z,98803.73
2018-03-07T04:03:00.194Z,98803.86
2018-03-07T04:08:01.543Z,98805.16
2018-03-07T04:13:02.876Z,98806.73
2018-03-07T04:18:04.196Z,98801.56
2018-03-07T04:23:06.297Z,98799.66
2018-03-07T04:28:08.514Z,98802.58
2018-03-07T04:33:09.907Z,98804.37
2018-03-07T04:38:11.296Z,98802.93
2018-03-07T04:43:12.661Z,98803.07
2018-03-07T04:48:13.984Z,98805.89
2018-03-07T04:53:15.305Z,98814.67
2018-03-07T04:58:17.403Z,98807.69
2018-03-07T05:03:18.740Z,98807.42
2018-03-07T05:08:20.141Z,98820.07
2018-03-07T05:13:21.482Z,98816.45
2018-03-07T05:18:23.527Z,98826.08
2018-03-07T05:23:24.856Z,98831.62
2018-03-07T05:28:26.203Z,98837.28
2018-03-07T05:33:27.547Z,98825.55
2018-03-07T05:38:28.897Z,98827.22
2018-03-07T05:43:31.041Z,98824.38
2018-03-07T05:48:32.395Z,98839.80
2018-03-07T05:53:33.716Z,98851.75
2018-03-07T05:58:35.043Z,98853.41
2018-03-07T06:03:36.388Z,98856.16
2018-03-07T06:08:37.730Z,98854.45
2018-03-07T06:13:39.122Z,98865.41
2018-03-07T06:18:47.564Z,98859.39
2018-03-07T06:23:49.627Z,98862.38
2018-03-07T06:28:50.955Z,98874.00
2018-03-07T06:33:53.039Z,98873.37
2018-03-07T06:38:54.390Z,98873.11
2018-03-07T06:43:55.714Z,98890.56
2018-03-07T06:48:57.046Z,98895.04
2018-03-07T06:53:58.362Z,98907.39
2018-03-07T06:58:59.708Z,98903.41
2018-03-07T07:04:01.051Z,98913.59
2018-03-07T07:09:02.464Z,98907.58
2018-03-07T07:14:03.793Z,98911.21
2018-03-07T07:19:05.143Z,98922.33
2018-03-07T07:24:06.488Z,98926.00
2018-03-07T07:29:07.857Z,98935.88
2018-03-07T07:34:10.034Z,98938.19
2018-03-07T07:39:11.427Z,98937.41
2018-03-07T07:44:12.794Z,98948.31
2018-03-07T07:49:14.166Z,98954.88
2018-03-07T07:54:15.523Z,98964.29
2018-03-07T07:59:16.911Z,98963.91
2018-03-07T08:04:18.972Z,98978.34
2018-03-07T08:09:20.295Z,98977.58
2018-03-07T08:14:22.355Z,98966.14
2018-03-07T08:19:23.688Z,98972.58
2018-03-07T08:24:25.006Z,98980.70
2018-03-07T08:29:26.349Z,98976.17
2018-03-07T08:34:27.700Z,98971.83
2018-03-07T08:39:29.068Z,98985.58
2018-03-07T08:44:30.395Z,98987.75
2018-03-07T08:49:31.757Z,98993.54
2018-03-07T08:54:33.076Z,99005.05
2018-03-07T08:59:34.427Z,98997.05
2018-03-07T09:04:35.777Z,99001.62
2018-03-07T09:09:37.168Z,99006.77
2018-03-07T09:14:38.569Z,99007.38
2018-03-07T09:19:46.916Z,99008.68
2018-03-07T09:24:48.259Z,99010.70
2018-03-07T09:29:49.616Z,99017.13
2018-03-07T09:34:51.854Z,99019.13
2018-03-07T09:39:53.551Z,99027.31
2018-03-07T09:44:55.156Z,99026.29
2018-03-07T09:49:56.812Z,99026.91
2018-03-07T09:54:59.248Z,99023.92
2018-03-07T10:00:00.671Z,99022.62
2018-03-07T10:05:02.102Z,99025.23
2018-03-07T10:10:04.317Z,99023.75
2018-03-07T10:15:05.737Z,99022.81
2018-03-07T10:20:07.128Z,99014.91
2018-03-07T10:25:08.540Z,99017.84
2018-03-07T10:30:09.931Z,99011.91
2018-03-07T10:35:12.118Z,99017.72
2018-03-07T10:40:15.121Z,99021.99
2018-03-07T10:45:16.923Z,99034.64
2018-03-07T10:50:19.251Z,99034.72
2018-03-07T10:55:21.023Z,99027.53
2018-03-07T11:00:29.623Z,99031.31
2018-03-07T11:05:31.432Z,99032.59
2018-03-07T11:10:32.796Z,99029.80
2018-03-07T11:15:35.080Z,99038.08
2018-03-07T11:20:38.022Z,99038.73
2018-03-07T11:25:40.101Z,99038.61
2018-03-07T11:30:41.700Z,99034.66
2018-03-07T11:35:43.612Z,99033.27
2018-03-07T11:40:46.744Z,99037.16
2018-03-07T11:45:50.019Z,99042.23
2018-03-07T11:50:52.351Z,99030.92
2018-03-07T11:55:54.351Z,99032.15
2018-03-07T12:00:57.253Z,99042.78
2018-03-07T12:05:58.939Z,99041.41
2018-03-07T12:11:01.495Z,99034.44
2018-03-07T12:16:03.878Z,99042.19
2018-03-07T12:21:06.535Z,99037.90
2018-03-07T12:26:08.666Z,99034.19
2018-03-07T12:31:10.352Z,99030.11
2018-03-07T12:36:12.094Z,99027.42
2018-03-07T12:41:14.034Z,99034.45
2018-03-07T12:46:16.933Z,99040.02
2018-03-07T12:51:18.923Z,99048.86
2018-03-07T12:56:21.299Z,99053.84
2018-03-07T13:01:23.158Z,99049.13
2018-03-07T13:06:25.643Z,99049.45
2018-03-07T13:11:30.888Z,99049.45
2018-03-07T13:16:32.654Z,99050.44
2018-03-07T13:21:35.224Z,99048.19
2018-03-07T13:26:37.835Z,99048.39
2018-03-07T13:31:39.311Z,99051.59
2018-03-07T13:36:40.672Z,99050.40
2018-03-07T13:41:43.687Z,99044.16
2018-03-07T13:46:45.240Z,99039.94
2018-03-07T13:51:47.704Z,99042.59
2018-03-07T13:56:50.079Z,99037.57
2018-03-07T14:01:52.629Z,99045.59
2018-03-07T14:06:54.225Z,99039.89
2018-03-07T14:11:56.100Z,99049.70
2018-03-07T14:16:58.173Z,99051.83
2018-03-07T14:21:59.700Z,99049.55
2018-03-07T14:27:01.265Z,99055.94
2018-03-07T14:32:03.427Z,99057.84
2018-03-07T14:37:04.864Z,99067.34
2018-03-07T14:42:07.012Z,99060.55
2018-03-07T14:47:08.717Z,99057.61
2018-03-07T14:52:10.152Z,99049.84
2018-03-07T14:57:12.323Z,99052.84
2018-03-07T15:02:13.776Z,99052.87
2018-03-07T15:07:15.220Z,99050.75
2018-03-07T15:12:16.642Z,99035.98
2018-03-07T15:17:18.735Z,99037.45
2018-03-07T15:22:20.178Z,99046.03
2018-03-07T15:27:21.628Z,99043.19
2018-03-07T15:32:23.046Z,99042.01
2018-03-07T15:37:24.468Z,99050.25
2018-03-07T15:42:25.851Z,99059.61
2018-03-07T15:47:27.287Z,99056.10
2018-03-07T15:52:29.566Z,99060.52
2018-03-07T15:57:31.005Z,99058.81
2018-03-07T16:02:33.215Z,99063.70
2018-03-07T16:07:35.351Z,99064.92
2018-03-07T16:12:36.810Z,99072.00
2018-03-07T16:17:38.239Z,99073.30
2018-03-07T16:22:39.711Z,99088.30
2018-03-07T16:27:41.350Z,99091.58
2018-03-07T16:32:42.759Z,99098.65
2018-03-07T16:37:44.206Z,99098.77
2018-03-07T16:42:45.969Z,99095.91
2018-03-07T16:47:48.212Z,99101.84
2018-03-07T16:52:49.676Z,99107.31
2018-03-07T16:57:51.818Z,99113.48
2018-03-07T17:02:53.296Z,99090.85
2018-03-07T17:07:54.704Z,99108.55
2018-03-07T17:12:56.210Z,99112.09
2018-03-07T17:17:57.775Z,99114.45
2018-03-07T17:22:59.375Z,99118.37
2018-03-07T17:28:00.843Z,99127.39
2018-03-07T17:33:02.256Z,99121.03
2018-03-07T17:38:03.664Z,99135.20
2018-03-07T17:43:05.069Z,99146.55
2018-03-07T17:48:06.962Z,99146.50
2018-03-07T17:53:08.402Z,99162.41
2018-03-07T17:58:09.919Z,99165.92
2018-03-07T18:03:11.328Z,99176.41
2018-03-07T18:08:13.250Z,99182.48
2018-03-07T18:13:15.354Z,99154.94
2018-03-07T18:18:17.812Z,99187.36
2018-03-07T18:23:20.364Z,99200.20
2018-03-07T18:28:22.177Z,99194.88
2018-03-07T18:33:24.818Z,99185.00
2018-03-07T18:38:26.760Z,99182.61
2018-03-07T18:43:30.884Z,99182.83
2018-03-07T18:48:32.894Z,99189.94
2018-03-07T18:53:38.949Z,99184.38
2018-03-07T18:58:43.332Z,99186.80
2018-03-07T19:03:45.781Z,99175.17
2018-03-07T19:08:47.595Z,99186.61
2018-03-07T19:13:50.343Z,99189.44
2018-03-07T19:18:53.623Z,99189.89
2018-03-07T19:23:55.410Z,99189.39
2018-03-07T19:28:57.301Z,99184.76
2018-03-07T19:33:58.992Z,99191.34
2018-03-07T19:39:00.607Z,99192.03
2018-03-07T19:44:02.187Z,99195.69
2018-03-07T19:49:04.290Z,99203.03
2018-03-07T19:54:06.193Z,99200.77
2018-03-07T19:59:07.813Z,99209.10
2018-03-07T20:04:09.389Z,99205.20
2018-03-07T20:09:11.052Z,99201.75
2018-03-07T20:14:12.800Z,99208.37
2018-03-07T20:19:14.699Z,99197.38
2018-03-07T20:24:16.493Z,99206.45
2018-03-07T20:29:19.022Z,99210.38
2018-03-07T20:34:21.264Z,99222.38
2018-03-07T20:39:23.056Z,99226.26
2018-03-07T20:44:25.599Z,99229.72
2018-03-07T20:49:27.692Z,99233.38
2018-03-07T20:54:35.086Z,99243.64
2018-03-07T20:59:36.827Z,99241.85
2018-03-07T21:04:38.256Z,99240.45
2018-03-07T21:09:39.703Z,99250.85
2018-03-07T21:14:41.805Z,99243.69
2018-03-07T21:19:43.637Z,99250.56
2018-03-07T21:24:45.763Z,99251.45
2018-03-07T21:29:47.132Z,99251.61
2018-03-07T21:34:48.722Z,99253.87
2018-03-07T21:39:52.351Z,99255.39
2018-03-07T21:44:55.758Z,99263.39
2018-03-07T21:49:57.170Z,99263.02
2018-03-07T21:54:58.564Z,99263.77
2018-03-07T21:59:59.950Z,99260.94
2018-03-07T22:05:01.280Z,99263.43
2018-03-07T22:10:02.642Z,99270.18
2018-03-07T22:15:04.543Z,99259.33
2018-03-07T22:20:06.018Z,99256.42
2018-03-07T22:25:07.348Z,99262.42
2018-03-07T22:30:09.450Z,99273.66
2018-03-07T22:35:14.315Z,99273.28
2018-03-07T22:40:15.724Z,99268.99
2018-03-07T22:45:17.117Z,99264.34
2018-03-07T22:50:19.259Z,99266.34
2018-03-07T22:55:20.626Z,99271.03
2018-03-07T23:00:28.820Z,99277.45
2018-03-07T23:05:30.187Z,99280.93
2018-03-07T23:10:31.536Z,99274.47
2018-03-07T23:15:33.655Z,99275.13
2018-03-07T23:20:35.780Z,99282.05
2018-03-07T23:25:37.139Z,99289.58
2018-03-07T23:30:38.497Z,99284.48
2018-03-07T23:35:39.883Z,99292.64
2018-03-07T23:40:41.236Z,99285.75
2018-03-07T23:45:42.600Z,99301.19
2018-03-07T23:50:43.980Z,99295.62
2018-03-07T23:55:45.363Z,99303.27
